Time;durP1;ratioP1;P1;durP2;ratioP2;P2;SDS_P1;SDS_P2;PMS_P1;PMS_P2;Temp;Humidity;BMP_temperature;BMP_pressure;BME280_temperature;BME280_humidity;BME280_pressure;Samples;Min_cycle;Max_cycle;Signal;HPM_P1;HPM_P2
2023/06/16 00:01:42;;;;;;;4.55;4.15;;;18.00;99.90;;;;;;5112169;28;20219;-74
2023/06/16 00:04:10;;;;;;;6.65;3.60;;;17.90;99.90;;;;;;5111666;28;20215;-75
2023/06/16 00:06:42;;;;;;;7.43;3.65;;;17.90;99.90;;;;;;5111137;28;20200;-72
2023/06/16 00:09:13;;;;;;;6.10;4.03;;;17.80;99.90;;;;;;5112077;28;20211;-76
2023/06/16 00:11:41;;;;;;;4.93;3.72;;;17.80;99.90;;;;;;5111798;28;20199;-72
2023/06/16 00:14:09;;;;;;;4.53;4.10;;;17.80;99.90;;;;;;5111960;28;20634;-72
2023/06/16 00:16:37;;;;;;;6.03;3.97;;;17.70;99.90;;;;;;5110036;28;20226;-72
2023/06/16 00:19:05;;;;;;;4.05;3.50;;;17.70;99.90;;;;;;5111622;28;20231;-74
2023/06/16 00:21:37;;;;;;;9.15;3.95;;;17.70;99.90;;;;;;5111762;28;20227;-72
2023/06/16 00:24:07;;;;;;;5.18;4.05;;;17.50;99.90;;;;;;5096084;28;20200;-71
2023/06/16 00:26:35;;;;;;;5.50;3.53;;;17.50;99.90;;;;;;5089822;28;20188;-72
2023/06/16 00:29:03;;;;;;;4.13;3.35;;;17.40;99.90;;;;;;5097248;28;20270;-72
2023/06/16 00:31:31;;;;;;;6.15;3.72;;;17.40;99.90;;;;;;5110543;28;20219;-72
2023/06/16 00:34:00;;;;;;;6.82;3.72;;;17.40;99.90;;;;;;5111061;28;20241;-72
2023/06/16 00:36:28;;;;;;;5.70;3.90;;;17.40;99.90;;;;;;5110708;28;20195;-71
2023/06/16 00:38:56;;;;;;;4.75;3.88;;;17.30;99.90;;;;;;5111004;28;20317;-72
2023/06/16 00:41:25;;;;;;;7.00;3.70;;;17.20;99.90;;;;;;5111146;28;20223;-74
2023/06/16 00:43:55;;;;;;;6.18;3.75;;;17.20;99.90;;;;;;5111231;28;20932;-74
2023/06/16 00:46:26;;;;;;;9.25;3.67;;;17.20;99.90;;;;;;5110498;28;20241;-74
2023/06/16 00:48:54;;;;;;;4.97;3.40;;;17.20;99.90;;;;;;5110611;28;20967;-72
2023/06/16 00:51:23;;;;;;;4.45;3.55;;;17.10;99.90;;;;;;5110245;28;20211;-72
2023/06/16 00:53:51;;;;;;;10.88;3.97;;;17.10;99.90;;;;;;5110687;28;20207;-74
2023/06/16 00:56:22;;;;;;;5.97;3.72;;;17.00;99.90;;;;;;5110290;28;20246;-75
2023/06/16 00:58:52;;;;;;;3.85;3.33;;;17.00;99.90;;;;;;5110653;28;20312;-73
2023/06/16 01:01:20;;;;;;;10.65;3.83;;;16.90;99.90;;;;;;5110604;28;20246;-73
2023/06/16 01:03:50;;;;;;;6.18;3.30;;;16.80;99.90;;;;;;5110345;28;20215;-72
2023/06/16 01:06:25;;;;;;;4.03;3.53;;;16.90;99.90;;;;;;5110334;28;20199;-71
2023/06/16 01:08:55;;;;;;;9.45;3.97;;;16.80;99.90;;;;;;5108802;28;20843;-71
2023/06/16 01:11:28;;;;;;;5.97;3.88;;;16.70;99.90;;;;;;5111030;28;20275;-71
2023/06/16 01:14:03;;;;;;;5.35;3.83;;;16.70;99.90;;;;;;5102215;28;20231;-74
2023/06/16 01:16:31;;;;;;;11.60;3.80;;;16.60;99.90;;;;;;5109889;28;20206;-71
2023/06/16 01:19:02;;;;;;;6.05;4.00;;;16.60;99.90;;;;;;5110602;28;20257;-72
2023/06/16 01:21:37;;;;;;;7.15;4.30;;;16.50;99.90;;;;;;5110853;28;20627;-75
2023/06/16 01:24:09;;;;;;;7.25;4.07;;;16.50;99.90;;;;;;5110484;28;20248;-71
2023/06/16 01:26:38;;;;;;;9.57;3.97;;;16.40;99.90;;;;;;5109802;28;20237;-72
2023/06/16 01:29:08;;;;;;;4.78;4.35;;;16.30;99.90;;;;;;5109770;28;20219;-74
2023/06/16 01:31:36;;;;;;;8.65;4.18;;;16.30;99.90;;;;;;5110344;28;20187;-72
2023/06/16 01:34:04;;;;;;;4.28;3.83;;;16.30;99.90;;;;;;5110286;28;20265;-71
2023/06/16 01:36:32;;;;;;;8.60;4.18;;;16.20;99.90;;;;;;5109448;28;20200;-72
2023/06/16 01:39:00;;;;;;;5.25;3.90;;;16.20;99.90;;;;;;5109997;28;20259;-75
2023/06/16 01:41:30;;;;;;;4.20;3.75;;;16.20;99.90;;;;;;5110200;28;20188;-74
2023/06/16 01:43:58;;;;;;;4.75;4.30;;;16.20;99.90;;;;;;5109756;28;20226;-72
2023/06/16 01:46:26;;;;;;;6.13;4.05;;;16.20;99.90;;;;;;5109376;28;20219;-72
2023/06/16 01:48:54;;;;;;;4.80;4.05;;;16.10;99.90;;;;;;5106945;28;20616;-72
2023/06/16 01:51:22;;;;;;;6.15;4.57;;;16.00;99.90;;;;;;5109724;28;20275;-71
2023/06/16 01:53:50;;;;;;;4.30;3.75;;;16.00;99.90;;;;;;5096444;28;20235;-72
2023/06/16 01:56:18;;;;;;;5.47;3.97;;;15.90;99.90;;;;;;5107044;28;20195;-72
2023/06/16 01:58:47;;;;;;;8.32;4.57;;;15.80;99.90;;;;;;5109721;28;20227;-72
2023/06/16 02:01:17;;;;;;;9.57;4.05;;;15.80;99.90;;;;;;5110133;28;20254;-74
2023/06/16 02:03:46;;;;;;;8.38;4.00;;;15.80;99.90;;;;;;5112493;28;20596;-73
2023/06/16 02:06:16;;;;;;;5.55;4.15;;;15.70;99.90;;;;;;5111951;28;20257;-72
2023/06/16 02:08:45;;;;;;;10.07;4.18;;;15.70;99.90;;;;;;5112494;28;20784;-72
2023/06/16 02:11:13;;;;;;;5.95;4.50;;;15.70;99.90;;;;;;5112612;28;20196;-72
2023/06/16 02:13:40;;;;;;;5.97;4.25;;;15.60;99.90;;;;;;5112728;28;20226;-71
2023/06/16 02:16:10;;;;;;;7.32;4.68;;;15.60;99.90;;;;;;5097605;28;20204;-71
2023/06/16 02:18:39;;;;;;;5.07;3.80;;;15.60;99.90;;;;;;5111999;28;20689;-71
2023/06/16 02:21:07;;;;;;;5.07;4.30;;;15.60;99.90;;;;;;5112439;28;20263;-72
2023/06/16 02:23:35;;;;;;;6.95;4.70;;;15.60;99.90;;;;;;5112252;28;20208;-71
2023/06/16 02:26:02;;;;;;;5.40;4.70;;;15.60;99.90;;;;;;5111389;28;20246;-71
2023/06/16 02:28:30;;;;;;;8.55;4.40;;;15.50;99.90;;;;;;5112042;28;20254;-71
2023/06/16 02:30:58;;;;;;;6.22;4.22;;;15.50;99.90;;;;;;5111782;28;20234;-71
2023/06/16 02:33:28;;;;;;;4.93;3.97;;;15.40;99.90;;;;;;5106270;28;20192;-71
2023/06/16 02:35:56;;;;;;;6.13;4.65;;;15.40;99.90;;;;;;5111515;28;20192;-73
2023/06/16 02:38:24;;;;;;;8.30;4.43;;;15.40;99.90;;;;;;5111865;28;20896;-71
2023/06/16 02:40:52;;;;;;;4.82;4.30;;;15.40;99.90;;;;;;5111905;28;20246;-71
2023/06/16 02:43:20;;;;;;;4.95;4.35;;;15.40;99.90;;;;;;5112131;28;20188;-71
2023/06/16 02:45:48;;;;;;;7.38;4.43;;;15.40;99.90;;;;;;5110964;28;20213;-71
2023/06/16 02:48:16;;;;;;;5.10;4.43;;;15.30;99.90;;;;;;5112096;28;20187;-71
2023/06/16 02:50:45;;;;;;;5.88;4.75;;;15.30;99.90;;;;;;5111971;28;20255;-72
2023/06/16 02:53:14;;;;;;;5.35;4.53;;;15.30;99.90;;;;;;5112041;28;20630;-72
2023/06/16 02:55:44;;;;;;;7.93;4.95;;;15.20;99.90;;;;;;5112926;28;20565;-72
2023/06/16 02:58:11;;;;;;;5.10;4.20;;;15.20;99.90;;;;;;5116258;28;20227;-73
2023/06/16 03:00:39;;;;;;;7.63;4.40;;;15.20;99.90;;;;;;5115929;28;20284;-73
2023/06/16 03:03:09;;;;;;;12.25;4.03;;;15.10;99.90;;;;;;5113741;28;20211;-73
2023/06/16 03:05:37;;;;;;;7.05;4.97;;;15.10;99.90;;;;;;5112798;28;20725;-73
2023/06/16 03:08:06;;;;;;;6.68;4.10;;;15.10;99.90;;;;;;5113407;28;20704;-73
2023/06/16 03:10:34;;;;;;;4.75;4.30;;;15.00;99.90;;;;;;5112468;28;20431;-77
2023/06/16 03:13:02;;;;;;;9.98;4.50;;;15.00;99.90;;;;;;5112938;28;20684;-74
2023/06/16 03:15:30;;;;;;;9.50;4.32;;;15.00;99.90;;;;;;5112588;28;20215;-73
2023/06/16 03:17:58;;;;;;;6.88;4.40;;;14.90;99.90;;;;;;5112798;28;20228;-73
2023/06/16 03:20:30;;;;;;;7.55;3.75;;;14.90;99.90;;;;;;5112977;28;20237;-72
2023/06/16 03:22:58;;;;;;;4.47;4.07;;;14.90;99.90;;;;;;5112526;28;20668;-72
2023/06/16 03:25:28;;;;;;;6.10;3.88;;;14.90;99.90;;;;;;5112551;28;20296;-72
2023/06/16 03:27:56;;;;;;;4.90;3.63;;;14.90;99.90;;;;;;5112974;28;20301;-73
2023/06/16 03:30:24;;;;;;;10.20;4.40;;;14.70;99.90;;;;;;5112785;28;20306;-73
2023/06/16 03:32:52;;;;;;;9.43;4.20;;;14.70;99.90;;;;;;5107234;28;20201;-73
2023/06/16 03:35:20;;;;;;;6.40;4.05;;;14.70;99.90;;;;;;5091604;28;20185;-73
2023/06/16 03:37:49;;;;;;;6.45;4.07;;;14.70;99.90;;;;;;5091944;28;20192;-75
2023/06/16 03:40:17;;;;;;;6.22;4.35;;;14.70;99.90;;;;;;5092777;28;20224;-72
2023/06/16 03:42:47;;;;;;;5.95;4.38;;;14.70;99.90;;;;;;5112383;28;20196;-75
2023/06/16 03:45:15;;;;;;;7.10;4.32;;;14.70;99.90;;;;;;5111915;28;20199;-71
2023/06/16 03:47:43;;;;;;;6.38;4.03;;;14.70;99.90;;;;;;5112105;28;20188;-71
2023/06/16 03:50:11;;;;;;;8.25;4.15;;;14.70;99.90;;;;;;5111891;28;20716;-74
2023/06/16 03:52:39;;;;;;;9.90;4.38;;;14.70;99.90;;;;;;5092019;28;20244;-72
2023/06/16 03:55:08;;;;;;;6.05;4.63;;;14.70;99.90;;;;;;5091366;28;20208;-72
2023/06/16 03:57:36;;;;;;;9.35;4.20;;;14.70;99.90;;;;;;5091680;28;20201;-72
2023/06/16 04:00:08;;;;;;;6.55;4.15;;;14.70;99.90;;;;;;5107448;28;20273;-73
2023/06/16 04:02:36;;;;;;;6.80;4.57;;;14.60;99.90;;;;;;5111575;28;20321;-72
2023/06/16 04:05:06;;;;;;;7.85;4.70;;;14.60;99.90;;;;;;5111248;28;20603;-74
2023/06/16 04:07:34;;;;;;;5.72;4.47;;;14.50;99.90;;;;;;5111570;28;20203;-73
2023/06/16 04:10:02;;;;;;;10.02;4.88;;;14.50;99.90;;;;;;5110875;28;20223;-74
2023/06/16 04:12:30;;;;;;;6.10;4.20;;;14.50;99.90;;;;;;5112090;28;20191;-71
2023/06/16 04:14:58;;;;;;;8.27;4.28;;;14.50;99.90;;;;;;5105635;28;20257;-72
2023/06/16 04:17:27;;;;;;;5.95;4.38;;;14.50;99.90;;;;;;5105945;28;20235;-72
2023/06/16 04:19:57;;;;;;;6.18;3.70;;;14.60;99.90;;;;;;5108437;28;20220;-72
2023/06/16 04:22:25;;;;;;;5.63;4.20;;;14.60;99.90;;;;;;5108724;28;20223;-73
2023/06/16 04:24:53;;;;;;;8.23;4.53;;;14.60;99.90;;;;;;5110046;28;20204;-74
2023/06/16 04:27:23;;;;;;;7.25;4.60;;;14.60;99.90;;;;;;5109946;28;20299;-74
2023/06/16 04:29:51;;;;;;;5.65;4.55;;;14.60;99.90;;;;;;5105788;28;20230;-75
2023/06/16 04:32:20;;;;;;;6.05;4.45;;;14.60;99.90;;;;;;5106178;28;20192;-74
2023/06/16 04:34:51;;;;;;;9.73;4.38;;;14.60;99.90;;;;;;5108878;28;20200;-73
2023/06/16 04:37:19;;;;;;;7.68;4.60;;;14.60;99.90;;;;;;5111304;28;20200;-74
2023/06/16 04:39:47;;;;;;;6.72;4.82;;;14.60;99.90;;;;;;5111356;28;20254;-74
2023/06/16 04:42:15;;;;;;;4.90;4.50;;;14.60;99.90;;;;;;5110891;28;20224;-74
2023/06/16 04:44:44;;;;;;;9.63;4.55;;;14.70;99.90;;;;;;5110380;28;20290;-74
2023/06/16 04:47:12;;;;;;;6.70;4.07;;;14.70;99.90;;;;;;5111581;28;20249;-74
2023/06/16 04:49:40;;;;;;;4.75;4.35;;;14.80;99.90;;;;;;5111220;28;20224;-74
2023/06/16 04:52:09;;;;;;;6.97;4.65;;;14.90;99.90;;;;;;5110979;28;20203;-74
2023/06/16 04:54:37;;;;;;;7.25;4.28;;;15.00;99.90;;;;;;5110078;28;20283;-74
2023/06/16 04:57:07;;;;;;;6.78;3.88;;;15.10;99.90;;;;;;5111006;28;20203;-74
2023/06/16 04:59:35;;;;;;;8.10;4.88;;;15.20;99.90;;;;;;5111049;28;20661;-74
2023/06/16 05:02:03;;;;;;;6.53;4.63;;;15.20;99.90;;;;;;5110902;28;20676;-74
2023/06/16 05:04:31;;;;;;;6.53;4.20;;;15.30;99.90;;;;;;5110124;28;20230;-73
2023/06/16 05:06:59;;;;;;;8.30;4.70;;;15.40;99.90;;;;;;5110083;28;20223;-75
2023/06/16 05:09:28;;;;;;;9.23;5.18;;;15.40;99.90;;;;;;5110215;28;20276;-75
2023/06/16 05:11:56;;;;;;;5.93;4.38;;;15.50;99.90;;;;;;5110556;28;20237;-74
2023/06/16 05:14:23;;;;;;;4.53;4.00;;;15.60;99.90;;;;;;5110322;28;20248;-73
2023/06/16 05:16:51;;;;;;;12.10;4.40;;;15.60;99.90;;;;;;5102116;28;20196;-71
2023/06/16 05:19:19;;;;;;;6.35;4.38;;;15.80;99.90;;;;;;5109565;28;20220;-71
2023/06/16 05:21:49;;;;;;;2.83;2.63;;;16.00;99.90;;;;;;5112261;22;20239;31
2023/06/16 05:24:16;;;;;;;3.33;2.83;;;16.40;99.90;;;;;;5070339;28;20212;-56
2023/06/16 05:26:46;;;;;;;3.40;3.10;;;16.70;99.90;;;;;;5070889;28;20572;-61
2023/06/16 05:29:14;;;;;;;4.72;3.80;;;17.00;99.90;;;;;;5072232;28;20263;-60
2023/06/16 05:31:42;;;;;;;5.50;4.50;;;17.30;99.90;;;;;;5073499;28;20289;-55
2023/06/16 05:34:10;;;;;;;7.15;3.70;;;17.50;99.90;;;;;;5079087;28;20204;-60
2023/06/16 05:36:38;;;;;;;4.25;3.67;;;17.70;99.90;;;;;;5071929;28;20767;-60
2023/06/16 05:39:07;;;;;;;4.60;4.20;;;17.90;99.90;;;;;;5078482;28;20212;-60
2023/06/16 05:41:35;;;;;;;5.82;4.40;;;18.20;99.90;;;;;;5072082;28;20765;-60
2023/06/16 05:44:06;;;;;;;7.95;4.60;;;18.40;99.90;;;;;;5072321;28;20204;-60
2023/06/16 05:46:34;;;;;;;6.28;4.38;;;18.60;99.90;;;;;;5073709;28;20277;-60
2023/06/16 05:49:02;;;;;;;6.63;4.15;;;18.80;99.90;;;;;;5077897;28;20209;-60
2023/06/16 05:51:30;;;;;;;6.13;4.22;;;18.90;99.90;;;;;;5080798;28;20664;-60
2023/06/16 05:53:58;;;;;;;6.47;3.97;;;18.90;99.90;;;;;;5074853;28;20201;-60
2023/06/16 05:56:26;;;;;;;7.47;5.00;;;18.90;99.90;;;;;;5071756;28;20252;-60
2023/06/16 05:58:54;;;;;;;7.75;5.00;;;19.00;99.90;;;;;;5076131;28;20260;-59
2023/06/16 06:01:23;;;;;;;9.75;4.32;;;19.10;99.90;;;;;;5071843;28;20349;-57
2023/06/16 06:03:52;;;;;;;5.10;4.60;;;19.20;99.90;;;;;;5072221;28;20250;-57
2023/06/16 06:08:55;;;;;;;5.53;4.60;;;19.30;99.90;;;;;;4991043;28;20647;-53
2023/06/16 06:11:23;;;;;;;10.38;4.18;;;19.40;99.90;;;;;;4992476;28;20203;-54
2023/06/16 06:13:51;;;;;;;7.63;4.53;;;19.50;99.90;;;;;;4992624;28;20199;-54
2023/06/16 06:16:19;;;;;;;8.98;4.65;;;19.60;99.90;;;;;;4991962;28;20203;-53
2023/06/16 06:18:48;;;;;;;11.50;4.75;;;19.70;99.90;;;;;;4992121;28;20242;-54
2023/06/16 06:21:16;;;;;;;12.95;4.63;;;19.70;99.90;;;;;;4988606;28;20245;-53
2023/06/16 06:23:44;;;;;;;5.50;4.45;;;19.70;99.90;;;;;;4991493;28;20325;-55
2023/06/16 06:26:12;;;;;;;10.10;5.00;;;19.80;99.90;;;;;;4991493;28;20230;-55
2023/06/16 06:28:40;;;;;;;5.50;4.40;;;19.80;99.90;;;;;;4992271;28;20715;-55
2023/06/16 06:31:08;;;;;;;8.80;4.55;;;19.90;99.90;;;;;;4991661;28;20334;-54
2023/06/16 06:33:36;;;;;;;6.28;4.75;;;19.90;99.90;;;;;;4992150;28;20277;-53
2023/06/16 06:36:05;;;;;;;8.65;4.00;;;19.90;99.90;;;;;;4991901;28;20207;-53
2023/06/16 06:38:33;;;;;;;6.50;4.75;;;20.00;99.90;;;;;;4991985;28;20638;-55
2023/06/16 06:41:01;;;;;;;6.57;4.32;;;20.10;99.90;;;;;;4992087;28;20282;-56
2023/06/16 06:43:29;;;;;;;8.63;4.60;;;20.20;99.90;;;;;;4991979;28;20223;-57
2023/06/16 06:45:57;;;;;;;6.82;4.20;;;20.20;99.90;;;;;;4991783;28;20263;-56
2023/06/16 06:48:26;;;;;;;7.93;4.32;;;20.20;99.90;;;;;;4991276;28;20226;-56
2023/06/16 06:50:54;;;;;;;8.82;3.83;;;20.10;99.90;;;;;;4990990;28;20199;-58
2023/06/16 06:53:23;;;;;;;7.00;4.00;;;20.00;99.90;;;;;;4990324;28;20283;-58
2023/06/16 06:55:51;;;;;;;9.82;4.13;;;20.00;99.90;;;;;;4991594;28;20666;-56
2023/06/16 06:58:19;;;;;;;6.28;3.85;;;20.00;99.90;;;;;;4991734;28;20227;-56
2023/06/16 07:00:47;;;;;;;9.45;4.20;;;20.00;99.90;;;;;;4992037;28;20231;-58
2023/06/16 07:03:15;;;;;;;5.20;3.75;;;20.00;99.90;;;;;;4991727;28;20766;-58
2023/06/16 07:05:43;;;;;;;7.97;3.75;;;20.00;99.90;;;;;;4991514;28;20298;-56
2023/06/16 07:08:11;;;;;;;4.78;4.20;;;20.10;99.90;;;;;;5005612;28;20227;-57
2023/06/16 07:10:40;;;;;;;10.75;4.20;;;20.10;99.90;;;;;;5031241;28;20261;-56
2023/06/16 07:13:08;;;;;;;5.75;4.13;;;20.20;99.90;;;;;;5031113;28;20202;-56
2023/06/16 07:15:36;;;;;;;4.88;4.10;;;20.20;99.90;;;;;;5019647;28;20639;-57
2023/06/16 07:18:04;;;;;;;8.63;3.90;;;20.30;99.90;;;;;;5026084;28;20685;-56
2023/06/16 07:20:32;;;;;;;8.55;3.92;;;20.30;99.90;;;;;;5014424;28;20234;-56
2023/06/16 07:23:01;;;;;;;7.22;3.90;;;20.40;99.90;;;;;;5024837;28;20265;-55
2023/06/16 07:25:32;;;;;;;6.63;4.10;;;20.50;99.90;;;;;;5019436;28;20248;-57
2023/06/16 07:28:02;;;;;;;8.68;4.28;;;20.50;99.90;;;;;;5028698;28;20226;-56
2023/06/16 07:30:29;;;;;;;4.32;3.40;;;20.60;99.90;;;;;;5029697;28;20260;-56
2023/06/16 07:32:57;;;;;;;5.47;3.50;;;20.70;99.90;;;;;;5027386;28;20293;-56
2023/06/16 07:35:25;;;;;;;7.13;3.20;;;20.90;99.90;;;;;;5030102;28;20634;-56
2023/06/16 07:37:53;;;;;;;5.97;3.50;;;21.00;99.90;;;;;;5026486;28;20231;-57
2023/06/16 07:40:22;;;;;;;5.68;3.25;;;21.10;99.90;;;;;;5014738;28;20202;-57
2023/06/16 07:42:50;;;;;;;8.18;3.40;;;21.20;99.90;;;;;;5031164;28;20237;-57
2023/06/16 07:45:19;;;;;;;8.43;3.65;;;21.30;99.90;;;;;;5022235;28;20245;-57
2023/06/16 07:47:48;;;;;;;7.07;3.58;;;21.40;99.90;;;;;;5026496;28;20238;-56
2023/06/16 07:50:16;;;;;;;8.98;3.55;;;21.50;99.90;;;;;;5034186;28;20202;-58
2023/06/16 07:52:44;;;;;;;15.15;3.40;;;21.60;99.90;;;;;;5031044;28;20217;-57
2023/06/16 07:55:12;;;;;;;8.40;3.60;;;21.70;99.90;;;;;;5028332;28;20252;-57
2023/06/16 07:57:40;;;;;;;3.60;2.85;;;21.70;99.90;;;;;;5022409;28;20222;-57
2023/06/16 08:00:11;;;;;;;3.97;3.25;;;21.80;99.90;;;;;;5030074;28;20254;-57
2023/06/16 08:02:41;;;;;;;3.95;3.08;;;21.90;99.90;;;;;;5034384;28;20286;-57
2023/06/16 08:05:10;;;;;;;5.15;3.53;;;21.90;99.90;;;;;;5026458;28;20218;-58
2023/06/16 08:07:38;;;;;;;9.35;3.55;;;21.90;99.90;;;;;;5025837;28;20230;-58
2023/06/16 08:10:07;;;;;;;9.63;3.25;;;21.90;99.90;;;;;;5018834;28;20285;-58
2023/06/16 08:12:35;;;;;;;6.47;3.83;;;22.00;99.90;;;;;;5030035;28;20665;-57
2023/06/16 08:15:03;;;;;;;3.50;3.20;;;22.10;99.90;;;;;;5020653;28;20230;-58
2023/06/16 08:17:31;;;;;;;5.90;3.20;;;22.30;99.90;;;;;;5022020;28;20333;-56
2023/06/16 08:20:00;;;;;;;6.53;3.60;;;22.40;99.90;;;;;;5015865;28;20213;-58
2023/06/16 08:22:28;;;;;;;10.05;3.50;;;22.50;99.90;;;;;;5032052;28;20214;-57
2023/06/16 08:24:57;;;;;;;5.45;3.55;;;22.50;99.90;;;;;;5028733;28;20219;-58
2023/06/16 08:27:25;;;;;;;5.00;3.33;;;22.50;99.90;;;;;;5032199;28;20317;-58
2023/06/16 08:29:53;;;;;;;6.40;3.15;;;22.50;99.90;;;;;;5031044;28;20279;-58
2023/06/16 08:32:22;;;;;;;9.90;3.20;;;22.60;99.90;;;;;;5029634;28;20253;-56
2023/06/16 08:34:50;;;;;;;6.18;3.40;;;22.70;99.90;;;;;;5026714;28;20209;-56
2023/06/16 08:37:20;;;;;;;5.35;3.65;;;22.90;99.90;;;;;;5029941;28;20316;-57
2023/06/16 08:39:57;;;;;;;4.00;3.60;;;23.00;99.90;;;;;;5029438;28;20203;-57
2023/06/16 08:42:25;;;;;;;4.63;3.60;;;23.10;99.90;;;;;;5017864;28;20214;-60
2023/06/16 08:44:54;;;;;;;6.10;4.03;;;23.30;99.90;;;;;;5027496;28;20301;-57
2023/06/16 08:47:22;;;;;;;4.20;3.55;;;23.30;99.90;;;;;;5027535;28;20230;-58
2023/06/16 08:49:52;;;;;;;5.90;3.40;;;23.40;99.90;;;;;;5017198;28;20214;-58
2023/06/16 08:52:23;;;;;;;8.63;3.60;;;23.40;99.90;;;;;;5026110;28;20203;-58
2023/06/16 08:55:11;;;;;;;6.40;3.63;;;23.40;99.90;;;;;;5020759;28;20222;-58
2023/06/16 08:57:43;;;;;;;8.43;3.85;;;23.50;99.90;;;;;;5032772;28;20331;-58
2023/06/16 09:00:13;;;;;;;3.80;3.40;;;23.50;99.90;;;;;;5016780;28;20234;-57
2023/06/16 09:02:41;;;;;;;5.68;3.40;;;23.50;99.90;;;;;;5016258;28;20198;-56
2023/06/16 09:05:10;;;;;;;9.93;3.60;;;23.60;99.90;;;;;;5031695;28;20226;-57
2023/06/16 09:07:41;;;;;;;4.85;3.42;;;23.80;99.90;;;;;;5031336;28;20789;-58
2023/06/16 09:10:09;;;;;;;4.15;3.50;;;24.00;99.90;;;;;;5016687;28;20251;-58
2023/06/16 09:12:37;;;;;;;3.92;3.35;;;24.10;99.90;;;;;;5029222;28;20203;-57
2023/06/16 09:15:08;;;;;;;6.97;3.40;;;24.10;99.90;;;;;;5019668;28;20198;-56
2023/06/16 09:17:37;;;;;;;4.22;3.58;;;24.10;99.90;;;;;;5021348;28;20226;-57
2023/06/16 09:20:07;;;;;;;5.70;3.55;;;24.20;99.90;;;;;;5028048;28;20682;-57
2023/06/16 09:22:36;;;;;;;7.25;4.05;;;24.30;99.70;;;;;;5016265;28;20611;-56
2023/06/16 09:25:06;;;;;;;6.75;3.35;;;24.50;99.00;;;;;;5028010;28;20218;-58
2023/06/16 09:27:44;;;;;;;4.90;3.38;;;24.60;99.90;;;;;;5021240;28;20302;-57
2023/06/16 09:30:13;;;;;;;6.28;3.35;;;24.80;98.20;;;;;;5028935;28;20240;-57
2023/06/16 09:32:41;;;;;;;6.90;3.42;;;24.90;96.40;;;;;;5016599;28;20226;-57
2023/06/16 09:35:19;;;;;;;6.30;3.42;;;25.00;96.90;;;;;;5032193;28;20722;-57
2023/06/16 09:37:47;;;;;;;6.22;3.60;;;25.10;96.10;;;;;;5019424;28;20268;-58
2023/06/16 09:40:17;;;;;;;3.33;3.10;;;25.20;95.90;;;;;;5029148;28;20249;-58
2023/06/16 09:42:47;;;;;;;3.72;3.13;;;25.40;98.30;;;;;;5016971;28;20198;-57
2023/06/16 09:45:15;;;;;;;6.20;3.33;;;25.60;96.10;;;;;;5023568;28;20254;-58
2023/06/16 09:47:44;;;;;;;8.65;3.40;;;25.80;94.60;;;;;;5024510;28;20226;-58
2023/06/16 09:50:14;;;;;;;4.07;3.28;;;25.80;93.60;;;;;;5016051;28;20203;-58
2023/06/16 09:52:42;;;;;;;4.65;3.30;;;25.70;93.70;;;;;;5032048;28;20240;-58
2023/06/16 09:55:11;;;;;;;3.95;3.58;;;25.50;94.60;;;;;;5031823;28;20248;-57
2023/06/16 09:57:42;;;;;;;5.20;3.30;;;25.50;93.30;;;;;;5020306;28;20226;-59
2023/06/16 10:00:15;;;;;;;6.55;3.25;;;25.50;94.60;;;;;;5028023;28;20629;-59
2023/06/16 10:02:44;;;;;;;6.40;3.40;;;25.50;93.30;;;;;;5031769;28;20202;-59
2023/06/16 10:05:16;;;;;;;5.05;3.00;;;25.70;93.50;;;;;;5027025;28;20234;-59
2023/06/16 10:07:44;;;;;;;4.82;2.80;;;26.00;92.10;;;;;;5019509;28;20234;-60
2023/06/16 10:10:12;;;;;;;8.18;3.13;;;26.20;93.80;;;;;;5028131;28;20243;-59
2023/06/16 10:12:44;;;;;;;3.63;2.85;;;26.50;92.70;;;;;;5031466;28;20611;-59
2023/06/16 10:15:13;;;;;;;3.45;3.03;;;26.90;90.90;;;;;;5023377;28;20199;-57
2023/06/16 10:17:42;;;;;;;3.30;3.05;;;27.10;91.50;;;;;;5023565;28;20265;-57
2023/06/16 10:20:11;;;;;;;3.00;2.80;;;27.40;92.00;;;;;;5016007;28;20202;-57
2023/06/16 10:22:39;;;;;;;3.95;3.15;;;27.70;91.60;;;;;;5028142;28;20205;-59
2023/06/16 10:25:07;;;;;;;3.38;3.03;;;27.90;91.40;;;;;;5014537;28;20267;-58
2023/06/16 10:27:35;;;;;;;3.97;2.97;;;28.10;90.30;;;;;;5021227;28;20272;-58
2023/06/16 10:30:06;;;;;;;7.53;3.00;;;28.40;91.10;;;;;;5016575;28;20670;-58
2023/06/16 10:32:35;;;;;;;5.63;2.60;;;28.50;87.80;;;;;;5026784;28;20245;-60
2023/06/16 10:35:03;;;;;;;9.15;3.03;;;28.80;89.00;;;;;;5018218;28;20204;-59
2023/06/16 10:37:30;;;;;;;4.85;2.90;;;28.90;84.30;;;;;;5020888;28;20258;-57
2023/06/16 10:39:59;;;;;;;10.98;3.00;;;28.80;82.20;;;;;;5025512;28;20256;-59
2023/06/16 10:42:27;;;;;;;4.85;2.88;;;28.90;84.70;;;;;;5018038;28;20730;-60
2023/06/16 10:44:55;;;;;;;3.20;3.00;;;29.20;83.50;;;;;;5024621;28;20343;-59
2023/06/16 10:47:28;;;;;;;3.10;2.90;;;29.50;85.30;;;;;;5026378;28;20225;-60
2023/06/16 10:49:58;;;;;;;4.03;3.15;;;29.60;81.70;;;;;;5015267;28;20218;-58
2023/06/16 10:52:54;;;;;;;5.43;3.03;;;29.70;81.90;;;;;;5025670;28;20261;-58
2023/06/16 10:55:32;;;;;;;3.25;3.05;;;30.00;83.00;;;;;;5020700;28;20281;-58
2023/06/16 10:58:27;;;;;;;3.20;3.03;;;30.20;79.70;;;;;;5027559;28;20269;-58
2023/06/16 11:01:00;;;;;;;3.42;2.65;;;30.50;80.20;;;;;;5030578;28;20208;-58
2023/06/16 11:03:38;;;;;;;3.20;2.90;;;30.60;71.80;;;;;;5018383;28;20253;-59
2023/06/16 11:06:06;;;;;;;3.20;3.00;;;30.40;72.80;;;;;;5026466;28;20291;-58
2023/06/16 11:08:49;;;;;;;3.75;3.45;;;29.80;75.40;;;;;;5014465;28;20317;-60
2023/06/16 11:11:17;;;;;;;5.25;3.60;;;29.10;76.50;;;;;;5023963;28;20202;-59
2023/06/16 11:13:46;;;;;;;3.65;3.35;;;28.90;76.70;;;;;;5025901;28;20213;-60
2023/06/16 11:16:14;;;;;;;3.85;3.53;;;29.20;78.50;;;;;;5026856;28;20614;-60
2023/06/16 11:18:44;;;;;;;3.30;3.10;;;29.60;72.60;;;;;;5034469;28;20328;-58
2023/06/16 11:21:12;;;;;;;3.53;3.33;;;30.00;76.10;;;;;;5032077;28;20260;-60
2023/06/16 11:23:43;;;;;;;4.63;3.25;;;30.30;69.50;;;;;;5029488;28;20206;-58
2023/06/16 11:26:12;;;;;;;4.30;3.45;;;30.40;68.30;;;;;;5024914;28;20226;-57
2023/06/16 11:28:41;;;;;;;3.45;3.28;;;30.40;65.40;;;;;;5018152;28;20256;-58
2023/06/16 11:31:09;;;;;;;3.67;3.38;;;30.50;65.20;;;;;;5033325;28;20946;-57
2023/06/16 11:33:37;;;;;;;4.18;3.72;;;30.80;67.00;;;;;;5027173;28;20289;-60
2023/06/16 11:36:17;;;;;;;4.57;3.58;;;31.00;65.70;;;;;;5032627;28;20230;-58
2023/06/16 11:38:45;;;;;;;3.58;3.28;;;31.10;65.50;;;;;;5029068;28;20233;-60
2023/06/16 11:41:17;;;;;;;3.08;2.92;;;31.30;64.10;;;;;;5026564;28;20547;-59
2023/06/16 11:43:45;;;;;;;8.63;3.17;;;31.70;67.60;;;;;;5033468;28;20242;-58
2023/06/16 11:46:12;;;;;;;3.38;3.17;;;31.70;62.80;;;;;;5030436;28;20257;-60
2023/06/16 11:48:40;;;;;;;7.03;3.55;;;31.60;61.60;;;;;;5030126;28;20230;-60
2023/06/16 11:51:08;;;;;;;4.57;3.40;;;31.90;62.30;;;;;;5032188;28;20210;-58
2023/06/16 11:53:38;;;;;;;3.90;3.60;;;31.90;63.50;;;;;;5032109;28;20206;-58
2023/06/16 11:56:08;;;;;;;3.25;3.05;;;32.10;64.20;;;;;;5033302;28;20230;-58
2023/06/16 11:58:35;;;;;;;3.70;3.38;;;32.10;59.50;;;;;;5033658;28;20214;-58
2023/06/16 12:01:04;;;;;;;3.40;3.10;;;32.10;60.60;;;;;;5033815;28;20256;-58
2023/06/16 12:03:34;;;;;;;3.83;3.50;;;32.00;58.90;;;;;;5033623;28;20202;-59
2023/06/16 12:06:03;;;;;;;4.75;3.17;;;32.30;58.70;;;;;;5033233;28;20305;-58
2023/06/16 12:08:41;;;;;;;3.70;3.13;;;32.60;57.60;;;;;;5081313;22;20271;-58
2023/06/16 12:11:09;;;;;;;3.70;3.40;;;32.80;58.00;;;;;;5090972;28;20283;-58
2023/06/16 12:13:37;;;;;;;3.72;3.50;;;33.00;56.90;;;;;;5082261;28;20292;-59
2023/06/16 12:16:05;;;;;;;2.80;2.70;;;33.10;58.00;;;;;;5088945;28;20676;-58
2023/06/16 12:18:33;;;;;;;2.63;2.53;;;33.10;57.10;;;;;;5077010;28;21041;-59
2023/06/16 12:21:14;;;;;;;3.05;2.75;;;33.20;56.00;;;;;;5086700;28;20283;-59
2023/06/16 12:23:48;;;;;;;5.07;3.35;;;33.30;55.70;;;;;;5086143;28;20287;-59
2023/06/16 12:26:32;;;;;;;3.30;3.15;;;33.60;56.80;;;;;;5087170;28;20220;-58
2023/06/16 12:29:01;;;;;;;4.78;2.72;;;33.90;54.30;;;;;;5078795;28;20212;-59
2023/06/16 12:31:29;;;;;;;3.20;2.90;;;34.00;57.90;;;;;;5093799;28;20200;-59
2023/06/16 12:33:57;;;;;;;3.33;3.13;;;34.00;58.40;;;;;;5079354;28;20266;-58
2023/06/16 12:36:25;;;;;;;3.15;2.85;;;34.10;59.40;;;;;;5090048;28;20223;-59
2023/06/16 12:38:56;;;;;;;2.78;2.60;;;34.20;56.90;;;;;;5078380;28;20216;-59
2023/06/16 12:41:23;;;;;;;3.55;2.72;;;34.50;59.90;;;;;;5083225;28;20197;-59
2023/06/16 12:43:52;;;;;;;3.70;2.63;;;34.40;55.00;;;;;;5086729;28;20345;-59
2023/06/16 12:46:20;;;;;;;2.88;2.53;;;33.70;54.70;;;;;;5075834;28;20648;-58
2023/06/16 12:48:48;;;;;;;2.60;2.50;;;32.70;56.30;;;;;;5088651;28;20312;-59
2023/06/16 12:51:17;;;;;;;4.35;2.40;;;32.10;54.80;;;;;;5081748;28;20204;-58
2023/06/16 12:53:46;;;;;;;2.53;2.33;;;32.00;54.60;;;;;;5080350;28;20227;-58
2023/06/16 12:56:16;;;;;;;3.20;2.65;;;31.60;55.00;;;;;;5089477;28;20200;-58
2023/06/16 12:58:44;;;;;;;3.10;2.80;;;31.30;58.30;;;;;;5077329;28;20220;-58